createdAt,value
2017-10-20T00:01:05.328Z,7.37
2017-10-20T00:03:32.803Z,9.45
2017-10-20T00:06:00.279Z,8.55
2017-10-20T00:08:27.776Z,7.95
2017-10-20T00:10:55.237Z,10.05
2017-10-20T00:13:22.805Z,8.30
2017-10-20T00:15:50.267Z,7.55
2017-10-20T00:18:17.812Z,7.10
2017-10-20T00:20:46.032Z,7.80
2017-10-20T00:23:13.539Z,7.97
2017-10-20T00:25:41.038Z,7.70
2017-10-20T00:28:08.527Z,8.00
2017-10-20T00:30:36.024Z,7.07
2017-10-20T00:33:03.485Z,8.90
2017-10-20T00:35:31.000Z,7.85
2017-10-20T00:37:58.467Z,7.82
2017-10-20T00:40:26.738Z,7.15
2017-10-20T00:42:54.239Z,6.95
2017-10-20T00:45:21.707Z,7.22
2017-10-20T00:47:49.197Z,8.05
2017-10-20T00:50:16.673Z,6.45
2017-10-20T00:52:44.927Z,6.70
2017-10-20T00:55:12.398Z,8.00
2017-10-20T00:57:39.886Z,8.77
2017-10-20T01:00:08.177Z,8.32
2017-10-20T01:02:35.655Z,7.72
2017-10-20T01:05:03.160Z,7.47
2017-10-20T01:07:30.640Z,7.60
2017-10-20T01:09:58.909Z,8.80
2017-10-20T01:12:27.144Z,7.30
2017-10-20T01:14:54.627Z,7.97
2017-10-20T01:17:22.107Z,8.50
2017-10-20T01:19:50.379Z,8.30
2017-10-20T01:22:18.671Z,8.80
2017-10-20T01:24:46.899Z,7.03
2017-10-20T01:27:14.409Z,8.80
2017-10-20T01:29:42.631Z,8.23
2017-10-20T01:32:10.128Z,8.15
2017-10-20T01:34:38.387Z,7.78
2017-10-20T01:37:05.875Z,9.00
2017-10-20T01:39:34.127Z,9.00
2017-10-20T01:42:02.360Z,8.52
2017-10-20T01:44:29.850Z,9.85
2017-10-20T01:46:57.356Z,8.80
2017-10-20T01:49:24.860Z,9.13
2017-10-20T01:51:52.355Z,7.90
2017-10-20T01:54:20.599Z,8.35
2017-10-20T01:56:48.097Z,8.85
2017-10-20T01:59:16.323Z,7.80
2017-10-20T02:01:43.815Z,8.15
2017-10-20T02:04:12.072Z,8.50
2017-10-20T02:06:39.587Z,8.68
2017-10-20T02:09:07.055Z,8.32
2017-10-20T02:11:34.599Z,7.50
2017-10-20T02:14:02.068Z,8.65
2017-10-20T02:16:29.593Z,8.25
2017-10-20T02:18:57.817Z,9.20
2017-10-20T02:21:25.275Z,10.57
2017-10-20T02:23:52.790Z,8.70
2017-10-20T02:26:21.047Z,8.38
2017-10-20T02:28:48.543Z,9.10
2017-10-20T02:31:16.041Z,7.85
2017-10-20T02:33:43.503Z,8.68
2017-10-20T02:36:11.020Z,8.05
2017-10-20T02:38:38.499Z,9.25
2017-10-20T02:41:05.995Z,7.72
2017-10-20T02:43:33.505Z,8.40
2017-10-20T02:46:00.998Z,8.73
2017-10-20T02:48:28.455Z,8.63
2017-10-20T02:50:55.952Z,8.80
2017-10-20T02:53:24.210Z,8.80
2017-10-20T02:55:51.675Z,9.38
2017-10-20T02:58:20.020Z,8.77
2017-10-20T03:00:47.488Z,8.80
2017-10-20T03:03:14.992Z,9.02
2017-10-20T03:05:42.477Z,8.82
2017-10-20T03:08:09.947Z,9.13
2017-10-20T03:10:37.432Z,9.00
2017-10-20T03:13:04.938Z,9.23
2017-10-20T03:15:32.427Z,9.40
2017-10-20T03:17:59.887Z,8.65
2017-10-20T03:20:27.403Z,10.02
2017-10-20T03:22:55.631Z,8.95
2017-10-20T03:25:23.119Z,9.95
2017-10-20T03:27:51.351Z,9.15
2017-10-20T03:30:18.844Z,9.18
2017-10-20T03:32:46.363Z,10.30
2017-10-20T03:35:13.835Z,11.43
2017-10-20T03:37:41.331Z,10.27
2017-10-20T03:40:09.586Z,11.48
2017-10-20T03:42:37.067Z,11.25
2017-10-20T03:45:05.344Z,11.12
2017-10-20T03:47:33.563Z,8.98
2017-10-20T03:50:01.059Z,10.85
2017-10-20T03:52:28.539Z,11.20
2017-10-20T03:54:56.856Z,12.00
2017-10-20T03:57:24.332Z,12.30
2017-10-20T03:59:51.810Z,11.52
2017-10-20T04:02:19.328Z,12.95
2017-10-20T04:04:46.816Z,14.38
2017-10-20T04:07:14.324Z,14.43
2017-10-20T04:09:41.816Z,13.95
2017-10-20T04:12:09.319Z,13.23
2017-10-20T04:14:37.559Z,13.50
2017-10-20T04:17:05.080Z,14.60
2017-10-20T04:19:32.569Z,14.85
2017-10-20T04:22:00.074Z,14.35
2017-10-20T04:24:28.329Z,15.68
2017-10-20T04:26:55.815Z,16.58
2017-10-20T04:29:24.087Z,18.20
2017-10-20T04:31:52.356Z,20.17
2017-10-20T04:34:19.848Z,20.80
2017-10-20T04:36:47.320Z,22.00
2017-10-20T04:39:14.820Z,17.90
2017-10-20T04:41:42.304Z,16.92
2017-10-20T04:44:10.560Z,20.02
2017-10-20T04:46:38.048Z,19.70
2017-10-20T04:49:06.317Z,18.65
2017-10-20T04:51:34.550Z,20.83
2017-10-20T04:54:02.055Z,19.35
2017-10-20T04:56:30.308Z,22.83
2017-10-20T04:58:57.809Z,23.45
2017-10-20T05:01:25.303Z,19.62
2017-10-20T05:03:52.829Z,20.12
2017-10-20T05:06:20.320Z,22.02
2017-10-20T05:08:47.803Z,21.90
2017-10-20T05:11:15.292Z,20.20
2017-10-20T05:13:42.797Z,24.73
2017-10-20T05:16:10.287Z,27.95
2017-10-20T05:18:37.791Z,24.45
2017-10-20T05:21:05.276Z,23.48
2017-10-20T05:23:32.787Z,26.60
2017-10-20T05:26:00.278Z,23.40
2017-10-20T05:28:27.777Z,23.83
2017-10-20T05:30:56.024Z,22.75
2017-10-20T05:33:23.531Z,22.67
2017-10-20T05:35:51.898Z,28.52
2017-10-20T05:38:20.201Z,27.87
2017-10-20T05:40:47.715Z,24.73
2017-10-20T05:43:15.196Z,27.30
2017-10-20T05:45:43.423Z,27.87
2017-10-20T05:48:10.931Z,24.95
2017-10-20T05:50:39.178Z,24.60
2017-10-20T05:53:06.695Z,26.60
2017-10-20T05:55:34.162Z,25.20
2017-10-20T05:58:01.667Z,23.65
2017-10-20T06:00:29.187Z,27.08
2017-10-20T06:02:56.717Z,23.58
2017-10-20T06:05:24.943Z,25.67
2017-10-20T06:07:52.431Z,23.65
2017-10-20T06:10:20.717Z,23.48
2017-10-20T06:12:48.949Z,24.05
2017-10-20T06:15:16.452Z,20.75
2017-10-20T06:17:44.742Z,22.33
2017-10-20T06:20:12.259Z,22.77
2017-10-20T06:22:39.735Z,24.58
2017-10-20T06:25:08.004Z,24.73
2017-10-20T06:27:35.488Z,23.55
2017-10-20T06:30:02.984Z,23.97
2017-10-20T06:32:30.470Z,24.35
2017-10-20T06:34:58.009Z,28.85
2017-10-20T06:37:25.480Z,30.58
2017-10-20T06:39:52.982Z,28.27
2017-10-20T06:42:21.246Z,25.23
2017-10-20T06:44:49.493Z,25.27
2017-10-20T06:47:17.009Z,25.30
2017-10-20T06:49:44.489Z,24.45
2017-10-20T06:52:11.999Z,25.75
2017-10-20T06:54:40.269Z,24.05
2017-10-20T06:57:07.739Z,25.42
2017-10-20T06:59:36.000Z,25.07
2017-10-20T07:02:03.482Z,24.75
2017-10-20T07:04:31.014Z,24.30
2017-10-20T07:06:58.503Z,23.02
2017-10-20T07:09:26.780Z,23.40
2017-10-20T07:11:55.039Z,25.12
2017-10-20T07:14:22.517Z,24.80
2017-10-20T07:16:50.012Z,25.27
2017-10-20T07:22:22.231Z,27.23
2017-10-20T07:24:49.758Z,27.25
2017-10-20T07:27:17.268Z,29.23
2017-10-20T07:29:45.548Z,25.03
2017-10-20T07:32:14.449Z,26.37
2017-10-20T07:34:42.704Z,26.25
2017-10-20T07:37:10.208Z,24.10
2017-10-20T07:39:37.678Z,25.20
2017-10-20T07:42:05.196Z,25.73
2017-10-20T07:44:33.459Z,27.00
2017-10-20T07:47:00.983Z,26.10
2017-10-20T07:49:28.465Z,26.73
2017-10-20T07:51:55.942Z,25.02
2017-10-20T07:54:24.240Z,23.23
2017-10-20T07:56:51.749Z,23.70
2017-10-20T07:59:19.243Z,24.27
2017-10-20T08:01:47.470Z,25.30
2017-10-20T08:04:14.967Z,27.07
2017-10-20T08:06:43.260Z,24.70
2017-10-20T08:09:11.496Z,25.87
2017-10-20T08:11:39.036Z,24.70
2017-10-20T08:14:06.532Z,23.57
2017-10-20T08:16:34.806Z,23.10
2017-10-20T08:19:02.301Z,22.67
2017-10-20T08:21:29.820Z,21.27
2017-10-20T08:23:57.311Z,20.07
2017-10-20T08:26:25.596Z,21.17
2017-10-20T08:28:53.068Z,19.80
2017-10-20T08:31:20.567Z,19.60
2017-10-20T08:33:48.067Z,20.33
2017-10-20T08:36:16.341Z,19.93
2017-10-20T08:38:44.616Z,20.00
2017-10-20T08:41:12.843Z,18.57
2017-10-20T08:43:40.367Z,19.47
2017-10-20T08:46:08.607Z,19.53
2017-10-20T08:48:37.576Z,18.40
2017-10-20T08:51:05.091Z,18.03
2017-10-20T08:53:32.583Z,16.67
2017-10-20T08:56:00.106Z,16.07
2017-10-20T08:58:28.329Z,18.60
2017-10-20T09:00:55.844Z,17.57
2017-10-20T09:03:23.334Z,16.20
2017-10-20T09:05:50.860Z,16.67
2017-10-20T09:08:19.128Z,16.73
2017-10-20T09:10:47.356Z,16.50
2017-10-20T09:13:14.859Z,17.53
2017-10-20T09:15:43.582Z,15.93
2017-10-20T09:18:11.100Z,16.73
2017-10-20T09:20:38.570Z,16.30
2017-10-20T09:23:06.849Z,16.63
2017-10-20T09:25:35.112Z,16.07
2017-10-20T09:28:02.609Z,16.57
2017-10-20T09:30:30.102Z,15.80
2017-10-20T09:32:57.611Z,16.10
2017-10-20T09:35:25.144Z,16.47
2017-10-20T09:37:52.673Z,16.10
2017-10-20T09:40:20.623Z,15.07
2017-10-20T09:42:48.122Z,15.13
2017-10-20T09:45:15.662Z,15.53
2017-10-20T09:47:43.443Z,16.73
2017-10-20T09:50:10.937Z,16.80
2017-10-20T09:52:39.187Z,17.23
2017-10-20T09:55:06.963Z,17.50
2017-10-20T09:57:35.330Z,18.87
2017-10-20T10:00:02.871Z,14.60
2017-10-20T10:02:30.364Z,14.23
2017-10-20T10:04:58.630Z,13.50
2017-10-20T10:07:27.611Z,12.50
2017-10-20T10:09:55.096Z,12.20
2017-10-20T10:12:23.353Z,11.90
2017-10-20T10:14:51.591Z,11.73
2017-10-20T10:17:19.087Z,12.37
2017-10-20T10:19:48.086Z,13.50
2017-10-20T10:22:15.583Z,13.83
2017-10-20T10:24:43.067Z,12.87
2017-10-20T10:27:10.598Z,14.50
2017-10-20T10:29:38.849Z,13.90
2017-10-20T10:32:06.351Z,13.67
2017-10-20T10:34:33.841Z,13.20
2017-10-20T10:37:01.311Z,16.00
2017-10-20T10:39:30.321Z,13.10
2017-10-20T10:41:58.554Z,13.00
2017-10-20T10:44:26.106Z,12.10
2017-10-20T10:46:53.566Z,12.60
2017-10-20T10:49:21.052Z,12.70
2017-10-20T10:51:48.551Z,11.03
2017-10-20T10:54:16.574Z,11.53
2017-10-20T10:56:44.100Z,9.07
2017-10-20T10:59:11.612Z,10.40
2017-10-20T11:01:40.962Z,9.60
2017-10-20T11:04:08.511Z,8.80
2017-10-20T11:06:47.936Z,8.00
2017-10-20T11:09:19.020Z,7.73
2017-10-20T11:11:58.523Z,6.63
2017-10-20T11:14:26.779Z,8.40
2017-10-20T11:16:54.254Z,3.60
2017-10-20T11:19:22.505Z,3.80
2017-10-20T11:21:49.984Z,4.10
2017-10-20T11:24:18.264Z,3.90
2017-10-20T11:26:46.476Z,3.30
2017-10-20T11:29:13.971Z,3.30
2017-10-20T11:31:41.487Z,3.37
2017-10-20T11:34:08.980Z,2.87
2017-10-20T11:36:36.456Z,3.20
2017-10-20T11:39:03.937Z,3.50
2017-10-20T11:41:32.206Z,3.43
2017-10-20T11:44:00.467Z,3.70
2017-10-20T11:46:27.948Z,3.83
2017-10-20T11:48:56.180Z,3.50
2017-10-20T11:51:23.660Z,3.47
2017-10-20T11:53:51.131Z,3.63
2017-10-20T11:56:19.396Z,3.80
2017-10-20T11:58:46.862Z,3.50
2017-10-20T12:01:15.107Z,3.57
2017-10-20T12:03:42.612Z,3.30
2017-10-20T12:06:10.851Z,4.30
2017-10-20T12:08:38.365Z,4.00
2017-10-20T12:11:05.843Z,4.13
2017-10-20T12:13:33.340Z,4.20
2017-10-20T12:16:00.818Z,3.83
2017-10-20T12:18:29.088Z,4.40
2017-10-20T12:20:57.341Z,4.20
2017-10-20T12:23:24.811Z,4.50
2017-10-20T12:25:52.328Z,4.70
2017-10-20T12:28:19.799Z,3.77
2017-10-20T12:30:47.290Z,4.63
2017-10-20T12:33:15.611Z,3.90
2017-10-20T12:35:43.118Z,3.40
2017-10-20T12:38:10.631Z,4.73
2017-10-20T12:40:39.679Z,4.23
2017-10-20T12:43:07.219Z,3.60
2017-10-20T12:45:34.690Z,4.43
2017-10-20T12:48:02.184Z,4.90
2017-10-20T12:50:29.687Z,5.10
2017-10-20T12:52:57.184Z,4.50
2017-10-20T12:55:25.424Z,3.93
2017-10-20T12:57:52.923Z,4.20
2017-10-20T13:00:21.192Z,3.90
2017-10-20T13:02:48.656Z,4.40
2017-10-20T13:05:16.916Z,4.37
2017-10-20T13:07:44.419Z,4.30
2017-10-20T13:10:11.876Z,4.50
2017-10-20T13:12:39.375Z,4.27
2017-10-20T13:15:06.856Z,4.63
2017-10-20T13:17:34.351Z,4.67
2017-10-20T13:20:01.807Z,3.80
2017-10-20T13:22:29.301Z,3.97
2017-10-20T13:24:56.789Z,4.67
2017-10-20T13:27:24.284Z,4.27
2017-10-20T13:29:51.743Z,4.20
2017-10-20T13:32:19.230Z,4.47
2017-10-20T14:04:37.407Z,4.73
2017-10-20T14:07:04.881Z,4.30
2017-10-20T14:09:33.181Z,5.20
2017-10-20T14:12:00.639Z,5.17
2017-10-20T14:14:28.112Z,4.93
2017-10-20T14:16:55.640Z,5.67
2017-10-20T14:19:23.880Z,4.97
2017-10-20T14:21:51.387Z,5.00
2017-10-20T14:24:19.639Z,5.50
2017-10-20T14:26:47.138Z,5.43
2017-10-20T14:29:14.644Z,5.53
2017-10-20T14:31:42.172Z,5.10
2017-10-20T14:34:09.667Z,4.73
2017-10-20T14:36:37.171Z,4.80
2017-10-20T14:39:04.705Z,5.33
2017-10-20T14:41:32.970Z,5.17
2017-10-20T14:44:01.228Z,4.67
2017-10-20T14:46:28.724Z,5.50
2017-10-20T14:48:56.949Z,5.13
2017-10-20T14:51:24.467Z,5.20
2017-10-20T14:53:51.948Z,5.93
2017-10-20T14:56:19.455Z,5.83
2017-10-20T14:58:46.950Z,5.80
2017-10-20T15:01:14.453Z,5.50
2017-10-20T15:03:41.970Z,5.83
2017-10-20T15:06:09.454Z,5.17
2017-10-20T15:08:36.998Z,5.90
2017-10-20T15:11:04.469Z,6.23
2017-10-20T15:13:32.056Z,5.87
2017-10-20T15:15:59.548Z,5.90
2017-10-20T15:18:27.816Z,5.77
2017-10-20T15:20:56.089Z,5.83
2017-10-20T15:23:23.572Z,5.70
2017-10-20T15:25:51.857Z,6.37
2017-10-20T15:28:19.311Z,6.67
2017-10-20T15:30:46.820Z,6.40
2017-10-20T15:33:14.307Z,5.40
2017-10-20T15:35:43.211Z,6.10
2017-10-20T15:38:11.457Z,5.73
2017-10-20T15:40:38.974Z,6.40
2017-10-20T15:43:06.459Z,6.83
2017-10-20T15:45:33.917Z,6.87
2017-10-20T15:48:01.444Z,5.77
2017-10-20T15:50:29.397Z,7.50
2017-10-20T15:52:56.957Z,6.50
2017-10-20T15:55:25.223Z,6.80
2017-10-20T15:57:53.489Z,6.53
2017-10-20T16:00:20.995Z,5.83
2017-10-20T16:02:48.477Z,7.40
2017-10-20T16:05:15.972Z,7.33
2017-10-20T16:07:44.210Z,9.07
2017-10-20T16:10:11.695Z,8.43
2017-10-20T16:12:40.691Z,8.47
2017-10-20T16:15:08.240Z,9.10
2017-10-20T16:17:36.484Z,7.33
2017-10-20T16:20:03.963Z,8.00
2017-10-20T16:22:31.468Z,7.00
2017-10-20T16:24:58.942Z,6.90
2017-10-20T16:27:26.471Z,7.30
2017-10-20T16:29:54.697Z,7.10
2017-10-20T16:32:22.201Z,6.70
2017-10-20T16:34:50.442Z,6.50
2017-10-20T16:37:17.910Z,6.90
2017-10-20T16:39:46.919Z,6.67
2017-10-20T16:42:15.075Z,7.50
2017-10-20T16:44:42.605Z,6.10
2017-10-20T16:47:10.088Z,6.50
2017-10-20T16:49:37.580Z,6.40
2017-10-20T16:52:05.861Z,6.17
2017-10-20T16:54:33.381Z,6.43
2017-10-20T16:57:00.843Z,5.97
2017-10-20T16:59:28.337Z,6.47
2017-10-20T17:01:56.601Z,6.07
2017-10-20T17:04:24.068Z,6.93
2017-10-20T17:06:52.364Z,6.50
2017-10-20T17:09:19.879Z,5.70
2017-10-20T17:11:47.348Z,6.50
2017-10-20T17:14:16.524Z,6.27
2017-10-20T17:16:44.020Z,6.63
2017-10-20T17:19:12.319Z,6.27
2017-10-20T17:21:40.610Z,6.27
2017-10-20T17:24:08.154Z,6.23
2017-10-20T17:26:36.403Z,5.20
2017-10-20T17:29:04.660Z,5.80
2017-10-20T17:31:32.175Z,6.60
2017-10-20T17:33:59.659Z,5.60
2017-10-20T17:36:27.168Z,5.83
2017-10-20T17:38:55.421Z,5.20
2017-10-20T17:41:22.918Z,6.90
2017-10-20T17:43:51.175Z,6.80
2017-10-20T17:46:19.404Z,7.70
2017-10-20T17:48:46.911Z,9.40
2017-10-20T17:51:15.139Z,7.80
2017-10-20T17:53:42.664Z,7.70
2017-10-20T17:56:10.428Z,6.43
2017-10-20T17:58:37.908Z,7.17
2017-10-20T18:01:05.387Z,6.90
2017-10-20T18:03:32.882Z,6.93
2017-10-20T18:06:01.163Z,5.90
2017-10-20T18:08:29.392Z,6.00
2017-10-20T18:10:56.918Z,7.13
2017-10-20T18:13:25.160Z,5.83
2017-10-20T18:15:54.178Z,8.03
2017-10-20T18:18:22.419Z,6.63
2017-10-20T18:20:49.893Z,6.30
2017-10-20T18:23:18.904Z,6.47
2017-10-20T18:25:47.150Z,7.87
2017-10-20T18:28:14.652Z,7.77
2017-10-20T18:30:42.128Z,8.00
2017-10-20T18:33:09.608Z,8.00
2017-10-20T18:35:37.111Z,8.63
2017-10-20T18:38:05.358Z,7.13
2017-10-20T18:40:34.393Z,7.77
2017-10-20T18:43:02.627Z,6.93
2017-10-20T18:45:30.139Z,7.27
2017-10-20T18:47:57.626Z,7.73
2017-10-20T18:50:25.110Z,7.30
2017-10-20T18:52:52.615Z,7.53
2017-10-20T18:55:20.122Z,8.00
2017-10-20T18:57:47.646Z,9.30
2017-10-20T19:00:15.107Z,11.50
2017-10-20T19:02:42.649Z,11.30
2017-10-20T19:05:10.879Z,12.17
2017-10-20T19:07:38.371Z,12.53
2017-10-20T19:10:06.628Z,10.70
2017-10-20T19:12:34.103Z,10.37
2017-10-20T19:15:02.363Z,10.33
2017-10-20T19:17:31.372Z,9.53
2017-10-20T19:19:59.609Z,9.60
2017-10-20T19:22:27.147Z,7.70
2017-10-20T19:24:54.664Z,7.73
2017-10-20T19:27:22.927Z,7.13
2017-10-20T19:29:50.391Z,6.43
2017-10-20T19:32:18.638Z,7.40
2017-10-20T19:34:46.148Z,6.30
2017-10-20T19:37:14.415Z,8.00
2017-10-20T19:39:42.672Z,5.87
2017-10-20T19:42:10.135Z,6.87
2017-10-20T19:44:38.539Z,5.97
2017-10-20T19:47:06.007Z,5.80
2017-10-20T19:49:33.500Z,5.60
2017-10-20T19:52:01.003Z,5.83
2017-10-20T19:54:29.267Z,4.93
2017-10-20T19:56:57.539Z,5.67
2017-10-20T19:59:25.044Z,6.17
2017-10-20T20:01:52.552Z,5.77
2017-10-20T20:04:20.023Z,6.50
2017-10-20T20:06:48.252Z,6.40
2017-10-20T20:09:15.752Z,6.17
2017-10-20T20:11:43.262Z,5.90
2017-10-20T20:14:10.792Z,6.77
2017-10-20T20:16:39.015Z,7.43
2017-10-20T20:19:06.564Z,6.47
2017-10-20T20:21:34.056Z,6.47
2017-10-20T20:24:01.534Z,7.10
2017-10-20T20:26:29.795Z,6.47
2017-10-20T20:28:57.270Z,8.23
2017-10-20T20:31:40.407Z,7.60
2017-10-20T20:34:21.460Z,8.10
2017-10-20T20:36:48.971Z,8.53
2017-10-20T20:39:16.475Z,8.20
2017-10-20T20:41:43.963Z,8.90
2017-10-20T20:44:12.241Z,9.40
2017-10-20T20:46:39.749Z,8.00
2017-10-20T20:49:07.247Z,7.97
2017-10-20T20:51:35.475Z,7.30
2017-10-20T20:54:02.996Z,7.40
2017-10-20T20:56:30.482Z,6.80
2017-10-20T20:58:58.010Z,6.30
2017-10-20T21:01:26.244Z,7.30
2017-10-20T21:03:53.736Z,6.70
2017-10-20T21:06:22.020Z,7.10
2017-10-20T21:08:50.245Z,5.67
2017-10-20T21:11:17.729Z,6.10
2017-10-20T21:13:45.221Z,6.33
2017-10-20T21:16:13.448Z,6.23
2017-10-20T21:18:40.972Z,5.30
2017-10-20T21:21:08.442Z,5.30
2017-10-20T21:23:35.940Z,5.63
2017-10-20T21:26:03.420Z,5.83
2017-10-20T21:28:31.692Z,6.83
2017-10-20T21:30:59.967Z,6.70
2017-10-20T21:33:28.204Z,7.00
2017-10-20T21:35:55.707Z,6.87
2017-10-20T21:38:23.959Z,8.17
2017-10-20T21:40:51.459Z,8.40
2017-10-20T21:43:18.941Z,7.30
2017-10-20T21:45:46.493Z,8.27
2017-10-20T21:48:14.362Z,8.90
2017-10-20T21:50:41.869Z,8.23
2017-10-20T21:53:09.362Z,8.10
2017-10-20T21:55:36.841Z,8.67
2017-10-20T21:58:04.352Z,8.20
2017-10-20T22:00:32.592Z,7.93
2017-10-20T22:03:00.108Z,9.90
2017-10-20T22:05:28.363Z,7.30
2017-10-20T22:07:55.829Z,7.07
2017-10-20T22:10:24.114Z,7.30
2017-10-20T22:12:52.362Z,6.47
2017-10-20T22:15:22.364Z,6.60
2017-10-20T22:17:51.383Z,7.33
2017-10-20T22:20:18.927Z,8.20
2017-10-20T22:22:46.387Z,7.40
2017-10-20T22:25:13.851Z,7.70
2017-10-20T22:27:41.355Z,8.20
2017-10-20T22:30:08.826Z,7.10
2017-10-20T22:32:36.352Z,7.80
2017-10-20T22:35:04.589Z,8.07
2017-10-20T22:37:32.062Z,8.10
2017-10-20T22:39:59.589Z,7.40
2017-10-20T22:42:27.060Z,8.03
2017-10-20T22:44:54.542Z,7.83
2017-10-20T22:47:23.533Z,8.10
2017-10-20T22:49:51.048Z,7.60
2017-10-20T22:52:18.509Z,7.47
2017-10-20T22:54:45.992Z,7.20
2017-10-20T22:57:13.463Z,8.17
2017-10-20T22:59:40.914Z,7.20
2017-10-20T23:02:08.410Z,6.90
2017-10-20T23:04:35.884Z,8.80
2017-10-20T23:07:03.414Z,7.27
2017-10-20T23:09:30.875Z,7.50
2017-10-20T23:11:59.139Z,7.57
2017-10-20T23:14:26.620Z,7.97
2017-10-20T23:16:54.864Z,7.47
2017-10-20T23:19:22.350Z,8.27
2017-10-20T23:21:50.587Z,7.73
2017-10-20T23:24:18.099Z,7.53
2017-10-20T23:26:46.330Z,9.27
2017-10-20T23:29:13.799Z,7.17
2017-10-20T23:31:41.305Z,8.40
2017-10-20T23:34:08.772Z,7.53
2017-10-20T23:36:36.306Z,8.00
2017-10-20T23:39:04.560Z,7.53
2017-10-20T23:41:32.079Z,11.77
2017-10-20T23:43:59.547Z,9.63
2017-10-20T23:46:27.032Z,10.07
2017-10-20T23:48:54.557Z,10.30
2017-10-20T23:51:22.034Z,9.90
2017-10-20T23:53:49.540Z,10.20
2017-10-20T23:56:17.016Z,9.27
2017-10-20T23:58:44.518Z,9.17
